Gordon Reid — CGBR — position and weather

sailwx.info

Track history (hours):
 
Tides and Currents Weather Stations Pressure Air Temp Water Temp Dewpoint Dewpoint Depression Visibility Wind Speed Wind Dir Waves Ship Positions

Gordon Reid

Last reported at 2015-Mar-28 23:34 UTC. Time now 2015-Mar-28 23:55 UTC.
Position N 49°12' W 123°42'.

Length 49.95 m; beam 11 m; draft 5.4 m.

Type: SAR. MMSI: 316094000.

Date/timePositionNaut miles runAvg speedWind from/ knotsBaromVisibWave heightAir tempDewpointWater temp
2015-Mar-28 23:34N 49°12' W 123°42'1212.0
2015-Mar-28 22:33N 49°04' W 123°30'1111.4
2015-Mar-28 21:34N 48°55' W 123°18'8 7.8
2015-Mar-28 20:33N 48°47' W 123°20'9 9.2
2015-Mar-28 19:33N 48°39' W 123°28'0 0.2
2015-Mar-28 17:12N 48°39' W 123°27'0 0.0
2015-Mar-28 16:06N 48°39' W 123°27'0 0.0
2015-Mar-28 14:30N 48°39' W 123°27'0 0.0
2015-Mar-28 12:06N 48°39' W 123°27'0 0.0
2015-Mar-28 11:18N 48°39' W 123°27'0 0.0
2015-Mar-28 07:12N 48°39' W 123°27'0 0.0
2015-Mar-28 04:29N 48°39' W 123°27'5 5.6
2015-Mar-28 03:30N 48°44' W 123°24'1 0.7
2015-Mar-28 02:21N 48°44' W 123°25'5 4.1
2015-Mar-28 01:12N 48°39' W 123°27'0 0.0
2015-Mar-27 23:24N 48°39' W 123°27'0 0.0
2015-Mar-27 22:12N 48°39' W 123°27'0 0.0
2015-Mar-27 21:24N 48°39' W 123°27'0 0.0
2015-Mar-27 20:30N 48°39' W 123°27'0 0.0
2015-Mar-27 19:18N 48°39' W 123°27'0 0.0
2015-Mar-27 18:30N 48°39' W 123°27'0 0.0
2015-Mar-27 17:30N 48°39' W 123°27'0 0.0
2015-Mar-27 15:18N 48°39' W 123°27'0 0.0
2015-Mar-27 14:12N 48°39' W 123°27'0 0.0
2015-Mar-27 11:12N 48°39' W 123°27'0 0.0
2015-Mar-27 10:24N 48°39' W 123°27'0 0.0
2015-Mar-27 09:24N 48°39' W 123°27'0 0.0
2015-Mar-27 07:24N 48°39' W 123°27'0 0.0
2015-Mar-27 05:24N 48°39' W 123°27'0 0.0
2015-Mar-27 04:12N 48°39' W 123°27'0 0.0
2015-Mar-27 03:18N 48°39' W 123°27'0 0.0
2015-Mar-27 02:12N 48°39' W 123°27'0 0.0
2015-Mar-26 23:30N 48°39' W 123°27'0 0.0
2015-Mar-26 20:18N 48°39' W 123°27'0 0.0
2015-Mar-26 15:24N 48°39' W 123°27'0 0.0
2015-Mar-26 13:30N 48°39' W 123°27'0 0.0
2015-Mar-26 10:18N 48°39' W 123°27'0 0.0
2015-Mar-26 08:24N 48°39' W 123°27'0 0.0
2015-Mar-26 06:18N 48°39' W 123°27'0 0.0
2015-Mar-26 04:18N 48°39' W 123°27'0 0.0
2015-Mar-26 03:18N 48°39' W 123°27'0 0.0
2015-Mar-26 02:18N 48°39' W 123°27'0 0.0
2015-Mar-26 01:06N 48°39' W 123°27'0 0.0
2015-Mar-25 22:30N 48°39' W 123°27'0 0.0
2015-Mar-25 20:24N 48°39' W 123°27'0 0.0
2015-Mar-25 19:24N 48°39' W 123°27'0 0.0
2015-Mar-25 17:30N 48°39' W 123°27'0 0.0
2015-Mar-25 16:12N 48°39' W 123°27'0 0.0
2015-Mar-25 15:18N 48°39' W 123°27'0 0.0
2015-Mar-25 14:18N 48°39' W 123°27'0 0.0
2015-Mar-25 12:18N 48°39' W 123°27'0 0.0
2015-Mar-25 05:18N 48°39' W 123°27'0 0.0
2015-Mar-25 03:30N 48°39' W 123°27'0 0.0
2015-Mar-25 02:30N 48°39' W 123°27'0 0.0
2015-Mar-25 01:24N 48°39' W 123°27'0 0.0
2015-Mar-24 22:18N 48°39' W 123°27'0 0.0
2015-Mar-24 21:14N 48°39' W 123°27'0 0.0
2015-Mar-24 20:26N 48°39' W 123°27'0 0.0
2015-Mar-24 19:08N 48°39' W 123°27'0 0.0
2015-Mar-24 18:26N 48°39' W 123°27'0 0.0
2015-Mar-24 16:08N 48°39' W 123°27'0 0.0
2015-Mar-24 14:08N 48°39' W 123°27'0 0.0
2015-Mar-24 12:26N 48°39' W 123°27'0 0.0
2015-Mar-24 08:14N 48°39' W 123°27'0 0.0
2015-Mar-24 06:32N 48°39' W 123°27'0 0.0
2015-Mar-24 05:26N 48°39' W 123°27'0 0.0
2015-Mar-24 04:08N 48°39' W 123°27'0 0.0
2015-Mar-24 03:26N 48°39' W 123°27'0 0.0
2015-Mar-24 01:26N 48°39' W 123°27'0 0.0
2015-Mar-23 23:26N 48°39' W 123°27'0 0.0
2015-Mar-23 19:26N 48°39' W 123°27'0 0.0
2015-Mar-23 18:26N 48°39' W 123°27'0 0.0
2015-Mar-23 15:26N 48°39' W 123°27'0 0.0
2015-Mar-23 13:32N 48°39' W 123°27'0 0.0
2015-Mar-23 09:32N 48°39' W 123°27'0 0.0
2015-Mar-23 07:26N 48°39' W 123°27'0 0.0
2015-Mar-23 02:14N 48°39' W 123°27'0 0.0
2015-Mar-23 01:20N 48°39' W 123°27'0 0.0
2015-Mar-22 22:26N 48°39' W 123°27'0 0.0
2015-Mar-22 16:06N 48°39' W 123°27'0 0.0
2015-Mar-22 14:24N 48°39' W 123°27'0 0.0
2015-Mar-22 10:06N 48°39' W 123°27'0 0.0
2015-Mar-22 08:30N 48°39' W 123°27'0 0.0
2015-Mar-22 01:12N 48°39' W 123°27'0 0.0
2015-Mar-22 00:12N 48°39' W 123°27'0 0.0
2015-Mar-21 23:30N 48°39' W 123°27'0 0.0
2015-Mar-21 22:18N 48°39' W 123°27'0 0.0
2015-Mar-21 21:12N 48°39' W 123°27'0 0.0
2015-Mar-21 18:30N 48°39' W 123°27'0 0.0
2015-Mar-21 14:06N 48°39' W 123°27'0 0.0
2015-Mar-21 12:18N 48°39' W 123°27'  
Track history (hours):
 
Tides and Currents Weather Stations Pressure Air Temp Water Temp Dewpoint Dewpoint Depression Visibility Wind Speed Wind Dir Waves Ship Positions

Gordon Reid

Last reported at 2015-Mar-28 23:34 UTC. Time now 2015-Mar-28 23:55 UTC.
Position N 49°12' W 123°42'.

Length 49.95 m; beam 11 m; draft 5.4 m.

Type: SAR. MMSI: 316094000.

Date/timePositionNaut miles runAvg speedWind from/ knotsBaromVisibWave heightAir tempDewpointWater temp
2015-Mar-28 23:34N 49°12' W 123°42'1212.0
2015-Mar-28 22:33N 49°04' W 123°30'1111.4
2015-Mar-28 21:34N 48°55' W 123°18'8 7.8
2015-Mar-28 20:33N 48°47' W 123°20'9 9.2
2015-Mar-28 19:33N 48°39' W 123°28'0 0.2
2015-Mar-28 17:12N 48°39' W 123°27'0 0.0
2015-Mar-28 16:06N 48°39' W 123°27'0 0.0
2015-Mar-28 14:30N 48°39' W 123°27'0 0.0
2015-Mar-28 12:06N 48°39' W 123°27'0 0.0
2015-Mar-28 11:18N 48°39' W 123°27'0 0.0
2015-Mar-28 07:12N 48°39' W 123°27'0 0.0
2015-Mar-28 04:29N 48°39' W 123°27'5 5.6
2015-Mar-28 03:30N 48°44' W 123°24'1 0.7
2015-Mar-28 02:21N 48°44' W 123°25'5 4.1
2015-Mar-28 01:12N 48°39' W 123°27'0 0.0
2015-Mar-27 23:24N 48°39' W 123°27'0 0.0
2015-Mar-27 22:12N 48°39' W 123°27'0 0.0
2015-Mar-27 21:24N 48°39' W 123°27'0 0.0
2015-Mar-27 20:30N 48°39' W 123°27'0 0.0
2015-Mar-27 19:18N 48°39' W 123°27'0 0.0
2015-Mar-27 18:30N 48°39' W 123°27'0 0.0
2015-Mar-27 17:30N 48°39' W 123°27'0 0.0
2015-Mar-27 15:18N 48°39' W 123°27'0 0.0
2015-Mar-27 14:12N 48°39' W 123°27'0 0.0
2015-Mar-27 11:12N 48°39' W 123°27'0 0.0
2015-Mar-27 10:24N 48°39' W 123°27'0 0.0
2015-Mar-27 09:24N 48°39' W 123°27'0 0.0
2015-Mar-27 07:24N 48°39' W 123°27'0 0.0
2015-Mar-27 05:24N 48°39' W 123°27'0 0.0
2015-Mar-27 04:12N 48°39' W 123°27'0 0.0
2015-Mar-27 03:18N 48°39' W 123°27'0 0.0
2015-Mar-27 02:12N 48°39' W 123°27'0 0.0
2015-Mar-26 23:30N 48°39' W 123°27'0 0.0
2015-Mar-26 20:18N 48°39' W 123°27'0 0.0
2015-Mar-26 15:24N 48°39' W 123°27'0 0.0
2015-Mar-26 13:30N 48°39' W 123°27'0 0.0
2015-Mar-26 10:18N 48°39' W 123°27'0 0.0
2015-Mar-26 08:24N 48°39' W 123°27'0 0.0
2015-Mar-26 06:18N 48°39' W 123°27'0 0.0
2015-Mar-26 04:18N 48°39' W 123°27'0 0.0
2015-Mar-26 03:18N 48°39' W 123°27'0 0.0
2015-Mar-26 02:18N 48°39' W 123°27'0 0.0
2015-Mar-26 01:06N 48°39' W 123°27'0 0.0
2015-Mar-25 22:30N 48°39' W 123°27'0 0.0
2015-Mar-25 20:24N 48°39' W 123°27'0 0.0
2015-Mar-25 19:24N 48°39' W 123°27'0 0.0
2015-Mar-25 17:30N 48°39' W 123°27'0 0.0
2015-Mar-25 16:12N 48°39' W 123°27'0 0.0
2015-Mar-25 15:18N 48°39' W 123°27'0 0.0
2015-Mar-25 14:18N 48°39' W 123°27'0 0.0
2015-Mar-25 12:18N 48°39' W 123°27'0 0.0
2015-Mar-25 05:18N 48°39' W 123°27'0 0.0
2015-Mar-25 03:30N 48°39' W 123°27'0 0.0
2015-Mar-25 02:30N 48°39' W 123°27'0 0.0
2015-Mar-25 01:24N 48°39' W 123°27'0 0.0
2015-Mar-24 22:18N 48°39' W 123°27'0 0.0
2015-Mar-24 21:14N 48°39' W 123°27'0 0.0
2015-Mar-24 20:26N 48°39' W 123°27'0 0.0
2015-Mar-24 19:08N 48°39' W 123°27'0 0.0
2015-Mar-24 18:26N 48°39' W 123°27'0 0.0
2015-Mar-24 16:08N 48°39' W 123°27'0 0.0
2015-Mar-24 14:08N 48°39' W 123°27'0 0.0
2015-Mar-24 12:26N 48°39' W 123°27'0 0.0
2015-Mar-24 08:14N 48°39' W 123°27'0 0.0
2015-Mar-24 06:32N 48°39' W 123°27'0 0.0
2015-Mar-24 05:26N 48°39' W 123°27'0 0.0
2015-Mar-24 04:08N 48°39' W 123°27'0 0.0
2015-Mar-24 03:26N 48°39' W 123°27'0 0.0
2015-Mar-24 01:26N 48°39' W 123°27'0 0.0
2015-Mar-23 23:26N 48°39' W 123°27'0 0.0
2015-Mar-23 19:26N 48°39' W 123°27'0 0.0
2015-Mar-23 18:26N 48°39' W 123°27'0 0.0
2015-Mar-23 15:26N 48°39' W 123°27'0 0.0
2015-Mar-23 13:32N 48°39' W 123°27'0 0.0
2015-Mar-23 09:32N 48°39' W 123°27'0 0.0
2015-Mar-23 07:26N 48°39' W 123°27'0 0.0
2015-Mar-23 02:14N 48°39' W 123°27'0 0.0
2015-Mar-23 01:20N 48°39' W 123°27'0 0.0
2015-Mar-22 22:26N 48°39' W 123°27'0 0.0
2015-Mar-22 16:06N 48°39' W 123°27'0 0.0
2015-Mar-22 14:24N 48°39' W 123°27'0 0.0
2015-Mar-22 10:06N 48°39' W 123°27'0 0.0
2015-Mar-22 08:30N 48°39' W 123°27'0 0.0
2015-Mar-22 01:12N 48°39' W 123°27'0 0.0
2015-Mar-22 00:12N 48°39' W 123°27'0 0.0
2015-Mar-21 23:30N 48°39' W 123°27'0 0.0
2015-Mar-21 22:18N 48°39' W 123°27'0 0.0
2015-Mar-21 21:12N 48°39' W 123°27'0 0.0
2015-Mar-21 18:30N 48°39' W 123°27'0 0.0
2015-Mar-21 14:06N 48°39' W 123°27'0 0.0
2015-Mar-21 12:18N 48°39' W 123°27'  

Dump ship's entire track history